Time;durP1;ratioP1;P1;durP2;ratioP2;P2;SDS_P1;SDS_P2;PMS_P1;PMS_P2;Temp;Humidity;BMP_temperature;BMP_pressure;BME280_temperature;BME280_humidity;BME280_pressure;Samples;Min_cycle;Max_cycle;Signal;HPM_P1;HPM_P2
2021/03/03 00:01:19;;;;;;;19.02;9.40;;;;;;;;;;5033977;28;20388;-48
2021/03/03 00:03:46;;;;;;;18.25;9.35;;;;;;;;;;5033791;28;20034;-45
2021/03/03 00:06:12;;;;;;;19.08;9.15;;;;;;;;;;5033731;28;20469;-45
2021/03/03 00:08:38;;;;;;;17.25;9.35;;;;;;;;;;5033947;28;20064;-49
2021/03/03 00:11:04;;;;;;;15.32;8.15;;;;;;;;;;5033963;28;20025;-51
2021/03/03 00:13:30;;;;;;;16.95;9.57;;;;;;;;;;5034066;28;20025;-51
2021/03/03 00:15:56;;;;;;;17.83;9.27;;;;;;;;;;5033693;28;20025;-47
2021/03/03 00:18:23;;;;;;;18.13;9.82;;;;;;;;;;5034012;28;20029;-50
2021/03/03 00:20:49;;;;;;;17.13;9.40;;;;;;;;;;5033659;28;20057;-50
2021/03/03 00:23:15;;;;;;;15.65;8.73;;;;;;;;;;5033661;28;20034;-52
2021/03/03 00:25:41;;;;;;;20.33;9.77;;;;;;;;;;5033852;28;20171;-45
2021/03/03 00:28:07;;;;;;;18.65;8.93;;;;;;;;;;5033670;28;20028;-46
2021/03/03 00:30:33;;;;;;;17.65;8.57;;;;;;;;;;5033472;28;20112;-49
2021/03/03 00:32:59;;;;;;;18.90;8.90;;;;;;;;;;5033307;28;20484;-47
2021/03/03 00:35:25;;;;;;;17.92;9.95;;;;;;;;;;5033503;28;20076;-47
2021/03/03 00:37:52;;;;;;;17.70;8.63;;;;;;;;;;5033102;28;20414;-50
2021/03/03 00:40:18;;;;;;;22.25;11.13;;;;;;;;;;5032417;28;20017;-45
2021/03/03 00:42:44;;;;;;;18.45;10.25;;;;;;;;;;5033082;28;20065;-46
2021/03/03 00:45:11;;;;;;;19.80;9.70;;;;;;;;;;5033570;28;20021;-47
2021/03/03 00:47:37;;;;;;;18.40;9.70;;;;;;;;;;5033593;28;20064;-46
2021/03/03 00:50:06;;;;;;;19.23;10.20;;;;;;;;;;5033320;28;20080;-47
2021/03/03 00:52:32;;;;;;;17.33;8.50;;;;;;;;;;5032933;28;20033;-47
2021/03/03 00:54:58;;;;;;;17.80;9.40;;;;;;;;;;5033103;28;20041;-48
2021/03/03 00:57:25;;;;;;;18.35;9.35;;;;;;;;;;5033217;28;20030;-52
2021/03/03 00:59:51;;;;;;;18.15;8.98;;;;;;;;;;5033015;28;20076;-53
2021/03/03 01:02:17;;;;;;;19.67;9.80;;;;;;;;;;5032895;28;20341;-46
2021/03/03 01:04:44;;;;;;;19.02;8.88;;;;;;;;;;5032893;28;20445;-52
2021/03/03 01:07:10;;;;;;;17.65;9.25;;;;;;;;;;5032792;28;20021;-47
2021/03/03 01:09:36;;;;;;;15.60;8.88;;;;;;;;;;5032824;28;20179;-50
2021/03/03 01:12:03;;;;;;;18.05;9.18;;;;;;;;;;5032982;28;20025;-52
2021/03/03 01:14:29;;;;;;;19.00;9.73;;;;;;;;;;5032753;28;20112;-47
2021/03/03 01:16:55;;;;;;;17.75;8.77;;;;;;;;;;5032534;28;20036;-50
2021/03/03 01:19:21;;;;;;;19.42;8.98;;;;;;;;;;5032833;28;20036;-48
2021/03/03 01:21:48;;;;;;;17.88;9.88;;;;;;;;;;5032525;28;20018;-47
2021/03/03 01:24:14;;;;;;;16.88;8.88;;;;;;;;;;5032481;28;20034;-50
2021/03/03 01:26:41;;;;;;;16.70;8.60;;;;;;;;;;5032633;28;20026;-51
2021/03/03 01:29:07;;;;;;;20.38;9.07;;;;;;;;;;5032823;28;20410;-49
2021/03/03 01:31:33;;;;;;;20.40;8.55;;;;;;;;;;5032207;28;20029;-50
2021/03/03 01:33:59;;;;;;;14.70;8.27;;;;;;;;;;5031909;28;20125;-52
2021/03/03 01:36:26;;;;;;;16.48;8.60;;;;;;;;;;5032226;28;20151;-46
2021/03/03 01:38:52;;;;;;;17.75;8.90;;;;;;;;;;5031998;28;20021;-50
2021/03/03 01:41:18;;;;;;;17.55;9.48;;;;;;;;;;5032183;28;20061;-49
2021/03/03 01:43:44;;;;;;;23.02;10.13;;;;;;;;;;5032809;28;20036;-52
2021/03/03 01:46:10;;;;;;;18.60;8.90;;;;;;;;;;5032469;28;20033;-46
2021/03/03 01:48:36;;;;;;;18.35;9.25;;;;;;;;;;5032578;28;20048;-45
2021/03/03 01:51:02;;;;;;;18.40;8.90;;;;;;;;;;5031954;28;20029;-46
2021/03/03 01:53:29;;;;;;;18.67;8.50;;;;;;;;;;5032332;28;20082;-46
2021/03/03 01:55:55;;;;;;;17.00;8.93;;;;;;;;;;5031972;28;20033;-51
2021/03/03 01:58:21;;;;;;;20.50;9.70;;;;;;;;;;5032460;28;20037;-46
2021/03/03 02:00:48;;;;;;;18.33;8.95;;;;;;;;;;5032023;28;20027;-46
2021/03/03 02:03:14;;;;;;;18.30;9.50;;;;;;;;;;5032452;28;20160;-48
2021/03/03 02:05:40;;;;;;;16.60;9.27;;;;;;;;;;5031806;28;20511;-46
2021/03/03 02:08:25;;;;;;;19.20;9.38;;;;;;;;;;5031981;28;20116;-47
2021/03/03 02:10:55;;;;;;;18.15;8.38;;;;;;;;;;5031889;28;20033;-49
2021/03/03 02:13:28;;;;;;;20.70;9.13;;;;;;;;;;5031943;28;20053;-47
2021/03/03 02:15:56;;;;;;;17.05;8.88;;;;;;;;;;5032050;28;20453;-47
2021/03/03 02:18:24;;;;;;;20.30;9.00;;;;;;;;;;5032783;28;20037;-48
2021/03/03 02:20:56;;;;;;;18.85;9.52;;;;;;;;;;5031968;28;20065;-47
2021/03/03 02:23:33;;;;;;;16.58;8.27;;;;;;;;;;5032064;28;20377;-47
2021/03/03 02:25:59;;;;;;;17.48;8.50;;;;;;;;;;5031904;28;20033;-46
2021/03/03 02:28:26;;;;;;;18.60;9.10;;;;;;;;;;5031839;28;20055;-49
2021/03/03 02:30:52;;;;;;;20.23;9.43;;;;;;;;;;5031488;28;20053;-45
2021/03/03 02:33:19;;;;;;;18.98;9.02;;;;;;;;;;5032080;28;20026;-49
2021/03/03 02:35:46;;;;;;;18.60;8.35;;;;;;;;;;5031897;28;20075;-50
2021/03/03 02:38:13;;;;;;;16.98;9.05;;;;;;;;;;5032001;28;20029;-50
2021/03/03 02:40:41;;;;;;;17.85;9.07;;;;;;;;;;5031451;28;20489;-47
2021/03/03 02:43:08;;;;;;;19.23;9.50;;;;;;;;;;5031931;28;20038;-46
2021/03/03 02:45:34;;;;;;;19.08;9.23;;;;;;;;;;5031845;28;20026;-48
2021/03/03 02:48:00;;;;;;;18.17;9.13;;;;;;;;;;5031686;28;20026;-46
2021/03/03 02:50:26;;;;;;;16.50;8.82;;;;;;;;;;5031592;28;20037;-45
2021/03/03 02:52:54;;;;;;;16.27;9.05;;;;;;;;;;5032890;28;20071;-48
2021/03/03 02:55:20;;;;;;;16.80;8.85;;;;;;;;;;5031599;28;20493;-49
2021/03/03 02:57:47;;;;;;;14.10;7.28;;;;;;;;;;5032218;28;20032;-51
2021/03/03 03:00:17;;;;;;;16.17;8.23;;;;;;;;;;5031864;28;20381;-49
2021/03/03 03:05:17;;;;;;;18.08;9.15;;;;;;;;;;5011348;28;20057;-47
2021/03/03 03:07:53;;;;;;;19.23;9.43;;;;;;;;;;5014566;28;20030;-51
2021/03/03 03:10:19;;;;;;;21.00;9.77;;;;;;;;;;5014457;28;20022;-52
2021/03/03 03:12:47;;;;;;;18.55;10.05;;;;;;;;;;5014427;28;20548;-47
2021/03/03 03:15:15;;;;;;;21.20;9.75;;;;;;;;;;5014337;28;20519;-48
2021/03/03 03:17:41;;;;;;;18.65;9.93;;;;;;;;;;5014583;28;20429;-50
2021/03/03 03:20:09;;;;;;;23.73;9.27;;;;;;;;;;5014164;28;20396;-47
2021/03/03 03:22:35;;;;;;;18.00;9.05;;;;;;;;;;5013672;28;20034;-50
2021/03/03 03:25:02;;;;;;;19.15;9.18;;;;;;;;;;4996633;28;20362;-50
2021/03/03 03:27:29;;;;;;;18.48;8.68;;;;;;;;;;5014155;28;20073;-52
2021/03/03 03:29:56;;;;;;;19.67;10.15;;;;;;;;;;5014147;28;20472;-47
2021/03/03 03:32:23;;;;;;;18.27;9.80;;;;;;;;;;5014154;28;20037;-50
2021/03/03 03:34:49;;;;;;;20.02;9.52;;;;;;;;;;5013851;28;20029;-46
2021/03/03 03:37:15;;;;;;;18.85;9.52;;;;;;;;;;5013899;28;20025;-50
2021/03/03 03:39:41;;;;;;;19.85;9.63;;;;;;;;;;5013896;28;20496;-47
2021/03/03 03:42:09;;;;;;;24.17;12.05;;;;;;;;;;5014181;28;20033;-47
2021/03/03 03:44:35;;;;;;;23.35;11.05;;;;;;;;;;5013766;28;20038;-50
2021/03/03 03:47:02;;;;;;;31.60;14.02;;;;;;;;;;5013974;28;20041;-48
2021/03/03 03:49:28;;;;;;;27.35;12.50;;;;;;;;;;5013921;28;20377;-46
2021/03/03 03:51:54;;;;;;;22.55;10.70;;;;;;;;;;5013854;28;20048;-46
2021/03/03 03:54:20;;;;;;;25.52;10.38;;;;;;;;;;5013630;28;20060;-50
2021/03/03 03:56:46;;;;;;;21.65;10.38;;;;;;;;;;5013604;28;20436;-49
2021/03/03 03:59:12;;;;;;;23.92;10.30;;;;;;;;;;5013594;28;20100;-47
2021/03/03 04:01:38;;;;;;;23.70;10.63;;;;;;;;;;5013515;28;20392;-46
2021/03/03 04:04:05;;;;;;;19.05;9.45;;;;;;;;;;5013104;28;20057;-47
2021/03/03 04:06:31;;;;;;;20.25;9.75;;;;;;;;;;5013443;28;20057;-52
2021/03/03 04:08:57;;;;;;;23.38;10.07;;;;;;;;;;5013448;28;20030;-48
2021/03/03 04:11:23;;;;;;;18.95;8.98;;;;;;;;;;5013220;28;20470;-53
2021/03/03 04:13:49;;;;;;;20.13;9.18;;;;;;;;;;5013160;28;20541;-47
2021/03/03 04:16:15;;;;;;;25.23;9.73;;;;;;;;;;5013213;28;20029;-45
2021/03/03 04:18:41;;;;;;;28.95;10.73;;;;;;;;;;5013081;28;20084;-45
2021/03/03 04:21:07;;;;;;;22.42;11.05;;;;;;;;;;5013089;28;20543;-45
2021/03/03 04:23:33;;;;;;;20.90;10.80;;;;;;;;;;5012982;28;20038;-48
2021/03/03 04:25:59;;;;;;;22.17;9.90;;;;;;;;;;5013543;28;20037;-45
2021/03/03 04:28:25;;;;;;;22.05;10.35;;;;;;;;;;5013135;28;20036;-46
2021/03/03 04:30:52;;;;;;;22.02;11.27;;;;;;;;;;5013269;28;20026;-46
2021/03/03 04:33:18;;;;;;;21.88;11.10;;;;;;;;;;5012971;28;20536;-46
2021/03/03 04:35:44;;;;;;;21.95;10.68;;;;;;;;;;5012789;28;20061;-51
2021/03/03 04:38:10;;;;;;;23.27;9.88;;;;;;;;;;5013073;28;20088;-51
2021/03/03 04:40:36;;;;;;;20.15;10.23;;;;;;;;;;5012817;28;20018;-46
2021/03/03 04:43:02;;;;;;;22.17;11.18;;;;;;;;;;5012777;28;20037;-46
2021/03/03 04:45:28;;;;;;;24.35;11.10;;;;;;;;;;5012905;28;20083;-48
2021/03/03 04:47:55;;;;;;;22.30;10.43;;;;;;;;;;5012695;28;20108;-48
2021/03/03 04:50:21;;;;;;;22.95;10.85;;;;;;;;;;5012474;28;20104;-45
2021/03/03 04:52:47;;;;;;;24.35;10.77;;;;;;;;;;5012663;28;20040;-47
2021/03/03 04:55:13;;;;;;;22.92;11.13;;;;;;;;;;5012583;28;20022;-51
2021/03/03 04:57:39;;;;;;;20.63;9.82;;;;;;;;;;5012577;28;20030;-46
2021/03/03 05:00:06;;;;;;;21.33;10.20;;;;;;;;;;5012743;28;20376;-49
2021/03/03 05:02:32;;;;;;;21.67;10.88;;;;;;;;;;5012539;28;20022;-45
2021/03/03 05:04:58;;;;;;;21.58;10.38;;;;;;;;;;5012189;28;20132;-48
2021/03/03 05:07:24;;;;;;;22.33;10.13;;;;;;;;;;5012380;28;20090;-49
2021/03/03 05:09:50;;;;;;;23.02;11.35;;;;;;;;;;5012381;28;20053;-47
2021/03/03 05:12:16;;;;;;;24.42;10.57;;;;;;;;;;5012317;28;20100;-47
2021/03/03 05:14:42;;;;;;;24.58;11.52;;;;;;;;;;5012459;28;20026;-47
2021/03/03 05:17:08;;;;;;;22.60;11.23;;;;;;;;;;5012147;28;20030;-46
2021/03/03 05:19:34;;;;;;;20.98;10.30;;;;;;;;;;5012037;28;20028;-45
2021/03/03 05:22:01;;;;;;;23.48;11.07;;;;;;;;;;5012469;28;20376;-46
2021/03/03 05:24:27;;;;;;;26.90;12.52;;;;;;;;;;5002356;28;20026;-53
2021/03/03 05:26:53;;;;;;;34.38;14.00;;;;;;;;;;5011678;28;20033;-46
2021/03/03 05:29:19;;;;;;;30.13;13.27;;;;;;;;;;5012061;28;20495;-47
2021/03/03 05:31:45;;;;;;;34.95;15.05;;;;;;;;;;5011967;28;20030;-47
2021/03/03 05:34:11;;;;;;;29.20;13.48;;;;;;;;;;5012232;28;20076;-45
2021/03/03 05:36:37;;;;;;;22.63;10.82;;;;;;;;;;5012042;28;20380;-45
2021/03/03 05:39:04;;;;;;;22.85;12.18;;;;;;;;;;5012051;28;20036;-46
2021/03/03 05:41:30;;;;;;;21.95;10.23;;;;;;;;;;5012298;28;20025;-46
2021/03/03 05:43:56;;;;;;;21.65;11.18;;;;;;;;;;5011722;28;20061;-48
2021/03/03 05:46:23;;;;;;;18.83;10.07;;;;;;;;;;5011934;28;20030;-48
2021/03/03 05:49:01;;;;;;;22.60;11.35;;;;;;;;;;5011880;28;20034;-46
2021/03/03 05:51:27;;;;;;;22.15;10.80;;;;;;;;;;5011709;28;20053;-45
2021/03/03 05:53:53;;;;;;;23.45;11.50;;;;;;;;;;5011679;28;20072;-47
2021/03/03 05:56:25;;;;;;;22.50;11.25;;;;;;;;;;5012229;28;20417;-48
2021/03/03 05:58:51;;;;;;;21.15;11.07;;;;;;;;;;5011733;28;20034;-47
2021/03/03 06:01:17;;;;;;;19.67;9.57;;;;;;;;;;5011622;28;20109;-51
2021/03/03 06:03:43;;;;;;;23.05;12.13;;;;;;;;;;5011342;28;20046;-49
2021/03/03 06:06:10;;;;;;;22.83;11.45;;;;;;;;;;5011466;28;20022;-45
2021/03/03 06:08:36;;;;;;;23.67;12.25;;;;;;;;;;5011951;28;20034;-52
2021/03/03 06:11:03;;;;;;;18.58;11.15;;;;;;;;;;5011611;28;20050;-48
2021/03/03 06:13:30;;;;;;;21.15;12.13;;;;;;;;;;5011545;28;20532;-46
2021/03/03 06:15:56;;;;;;;23.10;12.73;;;;;;;;;;5011521;28;20033;-49
2021/03/03 06:18:23;;;;;;;23.73;12.40;;;;;;;;;;5011392;28;20046;-50
2021/03/03 06:20:51;;;;;;;21.83;11.73;;;;;;;;;;5011257;28;20026;-47
2021/03/03 06:23:20;;;;;;;19.60;10.95;;;;;;;;;;5011379;28;20065;-47
2021/03/03 06:25:50;;;;;;;22.98;12.13;;;;;;;;;;5011453;28;20072;-46
2021/03/03 06:28:31;;;;;;;19.83;11.13;;;;;;;;;;5011552;28;20029;-53
2021/03/03 06:30:57;;;;;;;18.60;10.52;;;;;;;;;;5011320;28;20554;-48
2021/03/03 06:33:25;;;;;;;19.80;10.30;;;;;;;;;;5011348;28;20381;-48
2021/03/03 06:35:51;;;;;;;20.55;11.75;;;;;;;;;;5010085;28;20084;-46
2021/03/03 06:38:25;;;;;;;19.48;10.77;;;;;;;;;;5025357;28;20349;-45
2021/03/03 06:40:59;;;;;;;20.48;10.88;;;;;;;;;;5026153;28;20029;-47
2021/03/03 06:43:26;;;;;;;22.50;11.95;;;;;;;;;;5034398;28;20087;-44
2021/03/03 06:45:53;;;;;;;24.48;11.65;;;;;;;;;;5034826;28;20033;-46
2021/03/03 06:48:35;;;;;;;25.65;13.10;;;;;;;;;;5022779;28;20037;-47
2021/03/03 06:51:01;;;;;;;25.60;12.55;;;;;;;;;;5015244;28;20026;-47
2021/03/03 06:53:31;;;;;;;24.25;12.80;;;;;;;;;;4996038;28;20469;-46
2021/03/03 06:55:57;;;;;;;24.63;12.05;;;;;;;;;;4995648;28;20037;-46
2021/03/03 06:58:24;;;;;;;24.77;13.10;;;;;;;;;;4995277;28;20477;-49
2021/03/03 07:00:50;;;;;;;25.20;12.85;;;;;;;;;;4995212;28;20381;-49
2021/03/03 07:03:42;;;;;;;21.65;12.45;;;;;;;;;;4995335;28;20054;-54
2021/03/03 07:06:11;;;;;;;22.55;12.82;;;;;;;;;;4992576;28;20493;-53
2021/03/03 07:08:37;;;;;;;25.55;12.45;;;;;;;;;;4997817;28;20346;-49
2021/03/03 07:11:19;;;;;;;21.33;12.60;;;;;;;;;;5002286;28;20069;-50
2021/03/03 07:13:45;;;;;;;20.42;10.93;;;;;;;;;;4995334;28;20027;-51
2021/03/03 07:16:11;;;;;;;26.45;11.90;;;;;;;;;;5020653;28;20021;-50
2021/03/03 07:18:38;;;;;;;21.45;11.32;;;;;;;;;;5014381;28;20061;-47
2021/03/03 07:21:06;;;;;;;25.48;11.02;;;;;;;;;;5014195;28;20064;-48
2021/03/03 07:23:46;;;;;;;20.13;10.27;;;;;;;;;;5015189;28;20420;-47
2021/03/03 07:26:12;;;;;;;23.30;10.88;;;;;;;;;;5004904;28;20026;-50
2021/03/03 07:28:39;;;;;;;17.70;9.07;;;;;;;;;;4997412;28;20041;-49
2021/03/03 07:31:06;;;;;;;18.27;9.32;;;;;;;;;;5009132;28;20104;-48
2021/03/03 07:33:32;;;;;;;21.02;11.18;;;;;;;;;;5023728;28;20025;-50
2021/03/03 07:36:02;;;;;;;21.48;10.80;;;;;;;;;;5033858;28;20495;-47
2021/03/03 07:38:30;;;;;;;19.60;10.05;;;;;;;;;;5009546;28;20080;-46
2021/03/03 07:41:01;;;;;;;19.13;9.73;;;;;;;;;;4996445;28;20027;-47
2021/03/03 07:43:28;;;;;;;20.63;10.88;;;;;;;;;;5014115;28;20473;-49
2021/03/03 07:45:55;;;;;;;20.05;10.38;;;;;;;;;;5014696;28;20044;-47
2021/03/03 07:48:21;;;;;;;19.98;9.55;;;;;;;;;;5006612;28;20124;-47
2021/03/03 07:50:48;;;;;;;17.38;8.55;;;;;;;;;;5014036;28;20022;-49
2021/03/03 07:53:14;;;;;;;17.35;7.88;;;;;;;;;;5010625;28;20101;-52
2021/03/03 07:55:41;;;;;;;19.83;10.27;;;;;;;;;;4995540;28;20355;-53
2021/03/03 07:58:08;;;;;;;22.20;9.98;;;;;;;;;;5002202;28;20026;-50
2021/03/03 08:00:37;;;;;;;19.48;10.30;;;;;;;;;;4995270;28;20109;-48
2021/03/03 08:03:03;;;;;;;16.85;9.18;;;;;;;;;;4999548;28;20049;-47
2021/03/03 08:05:30;;;;;;;19.05;9.55;;;;;;;;;;5006121;28;20410;-50
2021/03/03 08:08:08;;;;;;;19.63;9.95;;;;;;;;;;4976602;28;20018;-52
2021/03/03 08:10:39;;;;;;;20.42;9.82;;;;;;;;;;5005096;28;20026;-48
2021/03/03 08:13:07;;;;;;;17.55;9.07;;;;;;;;;;5014791;28;20030;-49
2021/03/03 08:15:33;;;;;;;20.08;9.98;;;;;;;;;;5014088;28;20033;-47
2021/03/03 08:18:26;;;;;;;24.13;12.35;;;;;;;;;;5013800;28;20658;-46
2021/03/03 08:21:00;;;;;;;22.23;11.98;;;;;;;;;;5011177;28;20038;-48
2021/03/03 08:23:35;;;;;;;28.13;13.75;;;;;;;;;;5003778;28;20042;-49
2021/03/03 08:26:05;;;;;;;21.27;10.55;;;;;;;;;;4994245;28;20369;-48
2021/03/03 08:28:34;;;;;;;21.98;10.82;;;;;;;;;;4995839;28;20098;-49
2021/03/03 08:31:09;;;;;;;20.25;11.35;;;;;;;;;;5013000;28;20037;-47
2021/03/03 08:33:37;;;;;;;22.95;11.93;;;;;;;;;;5013098;28;20037;-46
2021/03/03 08:36:04;;;;;;;22.27;10.45;;;;;;;;;;5012885;28;20049;-46
2021/03/03 08:38:30;;;;;;;18.38;9.52;;;;;;;;;;5013117;28;20030;-47
2021/03/03 08:41:14;;;;;;;19.67;9.40;;;;;;;;;;5013394;28;20022;-45
2021/03/03 08:43:41;;;;;;;21.83;11.00;;;;;;;;;;5011693;28;20041;-46
2021/03/03 08:46:16;;;;;;;22.17;11.10;;;;;;;;;;5028892;28;20082;-46
2021/03/03 08:48:42;;;;;;;21.20;10.25;;;;;;;;;;4999830;28;20037;-50
2021/03/03 08:51:22;;;;;;;21.65;11.95;;;;;;;;;;5013087;28;20030;-47
2021/03/03 08:53:53;;;;;;;18.63;10.35;;;;;;;;;;5013034;28;20453;-46
2021/03/03 08:56:38;;;;;;;25.92;13.38;;;;;;;;;;5013123;28;20714;-47
2021/03/03 08:59:08;;;;;;;22.33;11.75;;;;;;;;;;5010723;28;20049;-46
2021/03/03 09:01:55;;;;;;;21.92;11.23;;;;;;;;;;5010354;28;20165;-47
2021/03/03 09:04:26;;;;;;;18.52;9.65;;;;;;;;;;5011210;28;20136;-46
2021/03/03 09:06:55;;;;;;;18.48;9.50;;;;;;;;;;5012010;28;20022;-46
2021/03/03 09:09:21;;;;;;;20.42;10.32;;;;;;;;;;5012698;28;20034;-46
2021/03/03 09:11:47;;;;;;;23.08;11.82;;;;;;;;;;5000553;28;20030;-46
2021/03/03 09:14:14;;;;;;;23.50;9.95;;;;;;;;;;4996029;28;20041;-48
2021/03/03 09:16:53;;;;;;;20.30;10.82;;;;;;;;;;5006310;28;20087;-46
2021/03/03 09:19:20;;;;;;;19.23;8.57;;;;;;;;;;5008593;28;20029;-47
2021/03/03 09:21:46;;;;;;;16.05;8.48;;;;;;;;;;5012369;28;20053;-46
2021/03/03 09:24:13;;;;;;;13.90;6.65;;;;;;;;;;5011041;28;20026;-46
2021/03/03 09:26:39;;;;;;;15.00;7.65;;;;;;;;;;4993293;28;20129;-46
2021/03/03 09:29:06;;;;;;;20.10;9.05;;;;;;;;;;4993013;28;20444;-46
2021/03/03 09:31:33;;;;;;;19.23;8.35;;;;;;;;;;4993013;28;20041;-46
2021/03/03 09:33:59;;;;;;;30.27;16.38;;;;;;;;;;4992784;28;20030;-46
2021/03/03 09:36:26;;;;;;;17.08;9.23;;;;;;;;;;4992567;28;20053;-46
2021/03/03 09:38:53;;;;;;;16.90;8.60;;;;;;;;;;5008177;28;20050;-46
2021/03/03 09:41:20;;;;;;;14.68;7.38;;;;;;;;;;4999744;28;20127;-46
2021/03/03 09:43:58;;;;;;;15.10;7.35;;;;;;;;;;4995104;28;20169;-45
2021/03/03 09:46:24;;;;;;;18.40;9.45;;;;;;;;;;5012523;28;20025;-46
2021/03/03 09:48:50;;;;;;;15.07;7.13;;;;;;;;;;5019589;28;20021;-47
2021/03/03 09:51:17;;;;;;;18.45;8.95;;;;;;;;;;5032103;28;20408;-46
2021/03/03 09:53:55;;;;;;;20.75;9.68;;;;;;;;;;5029767;28;20029;-49
2021/03/03 09:56:31;;;;;;;17.23;9.30;;;;;;;;;;4996895;28;20513;-46
2021/03/03 09:58:57;;;;;;;16.48;7.88;;;;;;;;;;5010420;28;20124;-47
2021/03/03 10:01:24;;;;;;;14.77;7.60;;;;;;;;;;5012125;28;20037;-46
2021/03/03 10:03:51;;;;;;;13.23;6.97;;;;;;;;;;5011812;28;20145;-46
2021/03/03 10:06:18;;;;;;;14.38;7.03;;;;;;;;;;5012103;28;20462;-45
2021/03/03 10:08:44;;;;;;;15.32;9.25;;;;;;;;;;5007668;28;20030;-44
2021/03/03 10:11:11;;;;;;;15.13;8.07;;;;;;;;;;5009648;28;20342;-44
2021/03/03 10:13:40;;;;;;;15.40;7.20;;;;;;;;;;5013061;28;20096;-44
2021/03/03 10:16:17;;;;;;;18.75;9.30;;;;;;;;;;5003644;28;20037;-43
2021/03/03 10:19:02;;;;;;;10.68;5.75;;;;;;;;;;5015895;28;20445;-47
2021/03/03 10:21:28;;;;;;;14.52;6.18;;;;;;;;;;5015885;28;20033;-44
2021/03/03 10:23:55;;;;;;;11.90;6.07;;;;;;;;;;5015591;28;20038;-45
2021/03/03 10:26:40;;;;;;;9.98;5.88;;;;;;;;;;5016083;28;20045;-44
2021/03/03 10:29:06;;;;;;;10.80;5.97;;;;;;;;;;5015900;28;20030;-45
2021/03/03 10:31:32;;;;;;;13.88;6.93;;;;;;;;;;5015652;28;20058;-43
2021/03/03 10:34:09;;;;;;;13.02;6.47;;;;;;;;;;5015989;28;20022;-44
2021/03/03 10:36:39;;;;;;;11.20;5.25;;;;;;;;;;5015460;28;20112;-45
2021/03/03 10:39:06;;;;;;;14.00;6.47;;;;;;;;;;5016961;28;20072;-44
2021/03/03 10:41:33;;;;;;;14.30;6.07;;;;;;;;;;5035000;28;20036;-45
2021/03/03 10:43:59;;;;;;;12.00;6.65;;;;;;;;;;5035212;28;20037;-43
2021/03/03 10:46:26;;;;;;;11.32;5.68;;;;;;;;;;5034350;28;20484;-43
2021/03/03 10:48:52;;;;;;;11.55;5.40;;;;;;;;;;5035470;28;20017;-44
2021/03/03 10:51:20;;;;;;;10.52;5.45;;;;;;;;;;5035380;28;20026;-44
2021/03/03 10:53:46;;;;;;;11.40;5.45;;;;;;;;;;5034845;28;20109;-46
2021/03/03 10:56:22;;;;;;;11.18;5.53;;;;;;;;;;5035355;28;20112;-46
2021/03/03 10:58:48;;;;;;;11.30;5.95;;;;;;;;;;5034892;28;20393;-49
2021/03/03 11:01:15;;;;;;;10.27;6.20;;;;;;;;;;5035158;28;20018;-49
2021/03/03 11:03:50;;;;;;;14.95;7.90;;;;;;;;;;5034739;28;20053;-49
2021/03/03 11:06:16;;;;;;;10.98;5.65;;;;;;;;;;5035089;28;20488;-52
2021/03/03 11:08:42;;;;;;;11.57;6.40;;;;;;;;;;5032437;28;21472;-53
2021/03/03 11:11:08;;;;;;;15.15;6.50;;;;;;;;;;5015496;28;20030;-49
2021/03/03 11:13:35;;;;;;;9.57;5.20;;;;;;;;;;5022749;28;20022;-44
2021/03/03 11:16:01;;;;;;;9.75;5.38;;;;;;;;;;5015314;28;20032;-47
2021/03/03 11:18:27;;;;;;;15.23;7.55;;;;;;;;;;5012340;28;20104;-47
2021/03/03 11:20:53;;;;;;;12.90;7.65;;;;;;;;;;5014955;28;20096;-45
2021/03/03 11:23:20;;;;;;;9.98;6.30;;;;;;;;;;5014001;28;20053;-46
2021/03/03 11:25:46;;;;;;;8.63;5.32;;;;;;;;;;5015096;28;20064;-45
2021/03/03 11:28:12;;;;;;;11.13;5.65;;;;;;;;;;5015259;28;20374;-45
2021/03/03 11:30:39;;;;;;;8.43;5.05;;;;;;;;;;5014655;28;20108;-47
2021/03/03 11:33:05;;;;;;;8.75;4.97;;;;;;;;;;5021419;28;20033;-45
2021/03/03 11:35:32;;;;;;;10.07;5.43;;;;;;;;;;5009415;28;20037;-45
2021/03/03 11:37:58;;;;;;;10.02;4.88;;;;;;;;;;5014464;28;20029;-50
2021/03/03 11:40:24;;;;;;;10.02;4.80;;;;;;;;;;5014615;28;20080;-43
2021/03/03 11:42:50;;;;;;;10.00;5.80;;;;;;;;;;5014721;28;20500;-45
2021/03/03 11:45:16;;;;;;;10.40;4.90;;;;;;;;;;5014311;28;20061;-46
2021/03/03 11:47:43;;;;;;;9.13;4.85;;;;;;;;;;5015609;28;21006;-43
2021/03/03 11:50:09;;;;;;;13.13;6.55;;;;;;;;;;5015090;28;20026;-44
2021/03/03 11:52:35;;;;;;;11.77;6.13;;;;;;;;;;5014800;28;20485;-46
2021/03/03 11:55:01;;;;;;;10.55;5.40;;;;;;;;;;5014788;28;20033;-46
2021/03/03 11:57:27;;;;;;;8.50;5.28;;;;;;;;;;5014573;28;20188;-44
2021/03/03 11:59:53;;;;;;;10.20;5.28;;;;;;;;;;5014369;28;20084;-46
2021/03/03 12:02:20;;;;;;;7.43;4.35;;;;;;;;;;5014429;28;20409;-47
2021/03/03 12:04:46;;;;;;;8.75;4.60;;;;;;;;;;5014063;28;20049;-43
2021/03/03 12:07:12;;;;;;;9.63;4.93;;;;;;;;;;5014738;28;20162;-46
2021/03/03 12:09:38;;;;;;;7.35;4.72;;;;;;;;;;5014079;28;20465;-46
2021/03/03 12:12:04;;;;;;;9.50;4.22;;;;;;;;;;5014270;28;20100;-47
2021/03/03 12:14:30;;;;;;;10.13;5.47;;;;;;;;;;5014505;28;20101;-45
2021/03/03 12:16:56;;;;;;;7.50;4.15;;;;;;;;;;5013889;28;20033;-43
2021/03/03 12:19:22;;;;;;;7.22;4.20;;;;;;;;;;5014353;28;20026;-45
2021/03/03 12:21:49;;;;;;;7.18;3.65;;;;;;;;;;5014352;28;20072;-44
2021/03/03 12:24:15;;;;;;;8.25;3.78;;;;;;;;;;5013997;28;20068;-45
2021/03/03 12:26:41;;;;;;;7.43;4.18;;;;;;;;;;5014069;28;20068;-45
2021/03/03 12:29:07;;;;;;;7.43;4.28;;;;;;;;;;5013991;28;20033;-44
2021/03/03 12:31:33;;;;;;;10.57;5.32;;;;;;;;;;4996479;28;20026;-45
2021/03/03 12:33:59;;;;;;;7.78;4.15;;;;;;;;;;5013805;28;20022;-46
2021/03/03 12:36:25;;;;;;;8.50;4.55;;;;;;;;;;5012749;28;20029;-49
2021/03/03 12:38:51;;;;;;;8.63;4.75;;;;;;;;;;5013860;28;20018;-47
2021/03/03 12:41:17;;;;;;;9.50;4.55;;;;;;;;;;5013950;28;20172;-46
2021/03/03 12:43:44;;;;;;;11.95;6.57;;;;;;;;;;5013945;28;20037;-46
2021/03/03 12:46:10;;;;;;;9.10;5.15;;;;;;;;;;5013367;28;20037;-45
2021/03/03 12:48:36;;;;;;;9.70;4.93;;;;;;;;;;5013774;28;20096;-44
2021/03/03 12:51:02;;;;;;;9.80;4.80;;;;;;;;;;5013911;28;20028;-48
2021/03/03 12:53:28;;;;;;;8.40;4.78;;;;;;;;;;5013477;28;20022;-45
2021/03/03 12:55:54;;;;;;;6.72;4.05;;;;;;;;;;5013317;28;20442;-43
2021/03/03 12:58:20;;;;;;;6.72;3.53;;;;;;;;;;5013348;28;20042;-47
2021/03/03 13:00:46;;;;;;;7.65;4.22;;;;;;;;;;5013470;28;20037;-45
2021/03/03 13:03:12;;;;;;;8.90;3.88;;;;;;;;;;5013079;28;20033;-45
2021/03/03 13:05:39;;;;;;;8.40;4.40;;;;;;;;;;5013255;28;20339;-53
2021/03/03 13:08:05;;;;;;;7.85;4.20;;;;;;;;;;5013216;28;20034;-43
2021/03/03 13:10:31;;;;;;;7.00;4.32;;;;;;;;;;5013006;28;20026;-52
2021/03/03 13:12:57;;;;;;;7.93;4.18;;;;;;;;;;5013401;28;20083;-45
2021/03/03 13:15:23;;;;;;;6.93;3.90;;;;;;;;;;5012842;28;20030;-50
2021/03/03 13:17:49;;;;;;;12.00;4.75;;;;;;;;;;5013497;28;20030;-50
2021/03/03 13:20:15;;;;;;;8.65;4.22;;;;;;;;;;5013174;28;20042;-45
2021/03/03 13:22:41;;;;;;;9.50;3.88;;;;;;;;;;5012841;28;20030;-50
2021/03/03 13:25:08;;;;;;;8.32;4.38;;;;;;;;;;5013107;28;20057;-52
2021/03/03 13:27:34;;;;;;;11.52;5.03;;;;;;;;;;5013114;28;20042;-45
2021/03/03 13:30:01;;;;;;;11.20;5.43;;;;;;;;;;5013122;28;20029;-49
2021/03/03 13:32:27;;;;;;;11.13;4.70;;;;;;;;;;5013095;28;20327;-51
2021/03/03 13:34:53;;;;;;;7.55;4.55;;;;;;;;;;5012836;28;20022;-51
2021/03/03 13:37:19;;;;;;;7.22;3.67;;;;;;;;;;5013159;28;20436;-46
2021/03/03 13:39:45;;;;;;;6.82;3.92;;;;;;;;;;5012535;28;20036;-53
2021/03/03 13:42:11;;;;;;;8.07;3.70;;;;;;;;;;5012775;28;20121;-48
2021/03/03 13:44:37;;;;;;;8.77;4.30;;;;;;;;;;5012745;28;20596;-51
2021/03/03 13:47:03;;;;;;;11.50;5.93;;;;;;;;;;5012503;28;20061;-50
2021/03/03 13:49:29;;;;;;;8.20;4.38;;;;;;;;;;5012593;28;20033;-48
2021/03/03 13:51:56;;;;;;;9.82;4.20;;;;;;;;;;5012575;28;20022;-44
2021/03/03 13:54:22;;;;;;;7.50;4.05;;;;;;;;;;5012938;28;20049;-47
2021/03/03 13:56:48;;;;;;;6.75;4.10;;;;;;;;;;5012930;28;20477;-46
2021/03/03 13:59:14;;;;;;;9.68;4.75;;;;;;;;;;5012404;28;20030;-45
2021/03/03 14:01:40;;;;;;;8.90;4.68;;;;;;;;;;5012773;28;20116;-48
2021/03/03 14:04:06;;;;;;;9.90;5.32;;;;;;;;;;5012324;28;20382;-46
2021/03/03 14:06:33;;;;;;;9.85;6.10;;;;;;;;;;5012424;28;20030;-43
2021/03/03 14:08:59;;;;;;;10.95;6.25;;;;;;;;;;5012359;28;20075;-45
2021/03/03 14:11:25;;;;;;;8.00;4.20;;;;;;;;;;5012173;28;20030;-45
2021/03/03 14:13:51;;;;;;;7.18;4.22;;;;;;;;;;5012393;28;20022;-44
2021/03/03 14:16:17;;;;;;;10.10;4.88;;;;;;;;;;5012166;28;20028;-43
2021/03/03 14:18:43;;;;;;;7.72;4.00;;;;;;;;;;5012276;28;20058;-45
2021/03/03 14:21:10;;;;;;;7.03;4.07;;;;;;;;;;5012224;28;20510;-43
2021/03/03 14:23:36;;;;;;;11.35;5.43;;;;;;;;;;5012469;28;20065;-46
2021/03/03 14:26:02;;;;;;;12.20;6.82;;;;;;;;;;5012114;28;20030;-46
2021/03/03 14:28:28;;;;;;;9.10;4.85;;;;;;;;;;5012182;28;20442;-44
2021/03/03 14:30:55;;;;;;;12.13;6.80;;;;;;;;;;5012557;28;20023;-44
2021/03/03 14:33:21;;;;;;;12.73;6.70;;;;;;;;;;5012343;28;20034;-43